Time;durP1;ratioP1;P1;durP2;ratioP2;P2;SDS_P1;SDS_P2;PMS_P1;PMS_P2;Temp;Humidity;BMP_temperature;BMP_pressure;BME280_temperature;BME280_humidity;BME280_pressure;Samples;Min_cycle;Max_cycle;Signal;HPM_P1;HPM_P2
2023/07/14 00:00:17;;;;;;;;;;;23.60;62.90;;;;;;4154654;28;20395;-46
2023/07/14 00:02:58;;;;;;;;;;;23.60;63.10;;;;;;4171960;28;20474;-50
2023/07/14 00:05:40;;;;;;;;;;;23.60;63.10;;;;;;4172262;28;20367;-49
2023/07/14 00:08:22;;;;;;;;;;;23.60;63.10;;;;;;4171640;28;19974;-50
2023/07/14 00:11:03;;;;;;;;;;;23.50;63.10;;;;;;4171244;28;19932;-50
2023/07/14 00:13:43;;;;;;;;;;;23.50;63.10;;;;;;4186270;28;20122;-49
2023/07/14 00:16:28;;;;;;;;;;;23.50;63.10;;;;;;4155008;28;19935;-50
2023/07/14 00:19:11;;;;;;;;;;;23.50;63.20;;;;;;4155291;28;19933;-50
2023/07/14 00:21:52;;;;;;;;;;;23.50;63.20;;;;;;4153247;28;19975;-51
2023/07/14 00:24:34;;;;;;;;;;;23.50;63.20;;;;;;4155375;28;19982;-48
2023/07/14 00:27:17;;;;;;;;;;;23.50;63.20;;;;;;4154669;28;20037;-50
2023/07/14 00:29:59;;;;;;;;;;;23.50;64.20;;;;;;4169135;28;19932;-50
2023/07/14 00:32:40;;;;;;;;;;;23.50;63.30;;;;;;4155007;28;19966;-49
2023/07/14 00:35:23;;;;;;;;;;;23.40;63.30;;;;;;4154889;28;20414;-49
2023/07/14 00:38:05;;;;;;;;;;;23.40;63.30;;;;;;4154659;28;19935;-51
2023/07/14 00:40:47;;;;;;;;;;;23.40;63.40;;;;;;4160089;28;19951;-51
2023/07/14 00:43:30;;;;;;;;;;;23.40;64.30;;;;;;4159802;28;19936;-48
2023/07/14 00:46:15;;;;;;;;;;;23.40;63.50;;;;;;4153539;28;20352;-48
2023/07/14 00:49:00;;;;;;;;;;;23.40;63.60;;;;;;4153960;28;20067;-46
2023/07/14 00:51:41;;;;;;;;;;;23.40;63.60;;;;;;4153833;28;19932;-47
2023/07/14 00:54:26;;;;;;;;;;;23.40;63.60;;;;;;4155904;28;20419;-48
2023/07/14 00:57:14;;;;;;;;;;;23.40;63.60;;;;;;4164386;28;20034;-49
2023/07/14 00:59:58;;;;;;;;;;;23.30;63.50;;;;;;4154284;28;20089;-47
2023/07/14 01:02:39;;;;;;;;;;;23.30;63.60;;;;;;4153821;28;19948;-51
2023/07/14 01:05:20;;;;;;;;;;;23.30;63.70;;;;;;4154482;28;19936;-47
2023/07/14 01:08:01;;;;;;;;;;;23.30;63.70;;;;;;4153607;28;19932;-47
2023/07/14 01:10:43;;;;;;;;;;;23.30;63.80;;;;;;4158177;28;19936;-50
2023/07/14 01:13:27;;;;;;;;;;;23.30;64.70;;;;;;4186455;28;19935;-50
2023/07/14 01:16:08;;;;;;;;;;;23.30;63.80;;;;;;4179058;28;19932;-46
2023/07/14 01:18:50;;;;;;;;;;;23.30;63.80;;;;;;4155249;28;20279;-48
2023/07/14 01:21:32;;;;;;;;;;;23.30;63.90;;;;;;4154393;28;20695;-51
2023/07/14 01:24:16;;;;;;;;;;;23.30;64.00;;;;;;4160031;28;20486;-46
2023/07/14 01:27:02;;;;;;;;;;;23.20;64.00;;;;;;4169564;28;19976;-47
2023/07/14 01:29:43;;;;;;;;;;;23.20;64.00;;;;;;4154653;28;19932;-47
2023/07/14 01:32:24;;;;;;;;;;;23.20;64.00;;;;;;4166440;28;20391;-51
2023/07/14 01:35:07;;;;;;;;;;;23.20;64.00;;;;;;4157208;28;19936;-47
2023/07/14 01:37:48;;;;;;;;;;;23.20;64.10;;;;;;4155249;28;19936;-47
2023/07/14 01:40:31;;;;;;;;;;;23.20;65.00;;;;;;4157244;28;20379;-47
2023/07/14 01:43:13;;;;;;;;;;;23.20;64.20;;;;;;4157978;28;19936;-49
2023/07/14 01:45:57;;;;;;;;;;;23.20;64.20;;;;;;4184470;28;20017;-47
2023/07/14 01:48:49;;;;;;;;;;;23.20;64.20;;;;;;4156147;28;19933;-46
2023/07/14 01:51:32;;;;;;;;;;;23.20;64.30;;;;;;4146665;28;19941;-45
2023/07/14 01:54:19;;;;;;;;;;;23.20;64.30;;;;;;4140946;28;19936;-52
2023/07/14 01:57:01;;;;;;;;;;;23.20;65.20;;;;;;4157220;28;19936;-51
2023/07/14 01:59:45;;;;;;;;;;;23.20;64.30;;;;;;4155732;28;19932;-51
2023/07/14 02:02:29;;;;;;;;;;;23.10;64.30;;;;;;4170375;28;20287;-51
2023/07/14 02:05:18;;;;;;;;;;;23.10;64.40;;;;;;4173626;28;19932;-44
2023/07/14 02:08:02;;;;;;;;;;;23.10;65.30;;;;;;4184327;28;20010;-49
2023/07/14 02:10:43;;;;;;;;;;;23.10;64.40;;;;;;4172076;28;20702;-51
2023/07/14 02:13:25;;;;;;;;;;;23.10;64.60;;;;;;4173205;28;20311;-51
2023/07/14 02:16:09;;;;;;;;;;;23.10;64.60;;;;;;4172721;28;19931;-52
2023/07/14 02:18:51;;;;;;;;;;;23.10;64.60;;;;;;4174378;28;19974;-49
2023/07/14 02:21:32;;;;;;;;;;;23.10;64.60;;;;;;4172267;28;19977;-47
2023/07/14 02:24:17;;;;;;;;;;;23.00;64.60;;;;;;4166540;28;20073;-49
2023/07/14 02:27:00;;;;;;;;;;;23.00;64.60;;;;;;4155674;28;20034;-51
2023/07/14 02:29:41;;;;;;;;;;;23.00;64.60;;;;;;4155504;28;20055;-50
2023/07/14 02:32:26;;;;;;;;;;;23.00;64.60;;;;;;4155566;28;19932;-52
2023/07/14 02:35:12;;;;;;;;;;;23.00;64.70;;;;;;4162775;28;19935;-47
2023/07/14 02:38:03;;;;;;;;;;;23.00;64.70;;;;;;4171862;28;19932;-51
2023/07/14 02:40:45;;;;;;;;;;;23.00;64.70;;;;;;4171212;28;19936;-53
2023/07/14 02:43:26;;;;;;;;;;;23.00;64.90;;;;;;4172392;28;19967;-48
2023/07/14 02:46:11;;;;;;;;;;;23.00;64.90;;;;;;4173116;28;19935;-48
2023/07/14 02:48:53;;;;;;;;;;;23.00;65.00;;;;;;4172859;28;19932;-48
2023/07/14 02:51:34;;;;;;;;;;;23.00;65.00;;;;;;4168698;28;19936;-48
2023/07/14 02:54:15;;;;;;;;;;;23.00;65.00;;;;;;4155840;28;19931;-47
2023/07/14 02:56:56;;;;;;;;;;;22.90;65.00;;;;;;4156490;28;20395;-49
2023/07/14 02:59:37;;;;;;;;;;;22.90;65.00;;;;;;4156545;28;20383;-47
2023/07/14 03:02:17;;;;;;;;;;;22.90;65.90;;;;;;4155668;28;19935;-49
2023/07/14 03:05:00;;;;;;;;;;;22.90;65.00;;;;;;4156730;28;19948;-46
2023/07/14 03:07:41;;;;;;;;;;;22.90;65.10;;;;;;4155731;28;20038;-49
2023/07/14 03:10:22;;;;;;;;;;;22.90;65.00;;;;;;4156082;28;19932;-49
2023/07/14 03:13:03;;;;;;;;;;;22.90;65.00;;;;;;4155937;28;19940;-49
2023/07/14 03:15:44;;;;;;;;;;;22.90;65.00;;;;;;4156227;28;19936;-50
2023/07/14 03:18:25;;;;;;;;;;;22.90;65.00;;;;;;4155530;28;19935;-49
2023/07/14 03:21:07;;;;;;;;;;;22.90;65.00;;;;;;4155565;28;19931;-51
2023/07/14 03:23:48;;;;;;;;;;;22.90;65.00;;;;;;4154919;28;19933;-48
2023/07/14 03:26:29;;;;;;;;;;;22.90;65.90;;;;;;4155589;28;20442;-48
2023/07/14 03:29:10;;;;;;;;;;;22.90;65.10;;;;;;4155827;28;20295;-47
2023/07/14 03:31:51;;;;;;;;;;;22.80;65.00;;;;;;4154482;28;20380;-44
2023/07/14 03:34:33;;;;;;;;;;;22.90;66.00;;;;;;4141846;28;20592;-46
2023/07/14 03:37:15;;;;;;;;;;;22.80;65.10;;;;;;4155580;28;20401;-47
2023/07/14 03:39:56;;;;;;;;;;;22.90;65.10;;;;;;4137935;28;19932;-45
2023/07/14 03:42:38;;;;;;;;;;;22.90;65.10;;;;;;4172858;28;19932;-46
2023/07/14 03:45:19;;;;;;;;;;;22.80;65.00;;;;;;4188203;28;20287;-46
2023/07/14 03:48:00;;;;;;;;;;;22.80;65.10;;;;;;4170476;28;19935;-46
2023/07/14 03:50:40;;;;;;;;;;;22.80;65.10;;;;;;4181560;28;19940;-46
2023/07/14 03:53:23;;;;;;;;;;;22.80;65.10;;;;;;4155804;28;19932;-46
2023/07/14 03:56:04;;;;;;;;;;;22.80;65.10;;;;;;4164432;28;19932;-46
2023/07/14 03:58:45;;;;;;;;;;;22.80;65.10;;;;;;4171740;28;19995;-48
2023/07/14 04:01:26;;;;;;;;;;;22.80;65.20;;;;;;4178448;28;20106;-47
2023/07/14 04:04:07;;;;;;;;;;;22.70;65.20;;;;;;4169327;28;19935;-48
2023/07/14 04:06:48;;;;;;;;;;;22.80;65.30;;;;;;4154844;28;19932;-51
2023/07/14 04:09:31;;;;;;;;;;;22.80;65.20;;;;;;4154864;28;19931;-49
2023/07/14 04:12:11;;;;;;;;;;;22.70;65.20;;;;;;4154196;28;19963;-47
2023/07/14 04:14:53;;;;;;;;;;;22.70;65.20;;;;;;4154824;28;20296;-47
2023/07/14 04:17:34;;;;;;;;;;;22.80;65.30;;;;;;4165472;28;20399;-48
2023/07/14 04:20:15;;;;;;;;;;;22.70;65.50;;;;;;4156019;28;19936;-51
2023/07/14 04:22:57;;;;;;;;;;;22.70;65.20;;;;;;4188164;28;19974;-52
2023/07/14 04:25:42;;;;;;;;;;;22.70;65.20;;;;;;4186032;28;24328;-45
2023/07/14 04:28:23;;;;;;;;;;;22.70;65.20;;;;;;4186915;28;19931;-43
2023/07/14 04:31:04;;;;;;;;;;;22.70;65.20;;;;;;4162242;28;19936;-43
2023/07/14 04:33:45;;;;;;;;;;;22.70;65.20;;;;;;4154224;28;19944;-44
2023/07/14 04:36:26;;;;;;;;;;;22.70;65.20;;;;;;4154821;28;20308;-42
2023/07/14 04:39:08;;;;;;;;;;;22.70;66.10;;;;;;4155377;28;20395;-45
2023/07/14 04:41:50;;;;;;;;;;;22.70;65.20;;;;;;4151356;28;19932;-44
2023/07/14 04:44:31;;;;;;;;;;;22.70;65.20;;;;;;4174270;28;19931;-46
2023/07/14 04:47:12;;;;;;;;;;;22.70;65.50;;;;;;4188367;28;19930;-46
2023/07/14 04:49:53;;;;;;;;;;;22.80;65.80;;;;;;4187449;28;19934;-46
2023/07/14 04:52:34;;;;;;;;;;;22.80;65.80;;;;;;4187406;28;19948;-47
2023/07/14 04:55:15;;;;;;;;;;;22.80;65.70;;;;;;4148969;28;19936;-45
2023/07/14 04:57:59;;;;;;;;;;;22.80;65.70;;;;;;4166257;28;19932;-43
2023/07/14 05:00:40;;;;;;;;;;;22.70;65.60;;;;;;4155174;28;20079;-47
2023/07/14 05:03:21;;;;;;;;;;;22.70;65.60;;;;;;4153320;28;20383;-49
2023/07/14 05:06:02;;;;;;;;;;;22.70;65.70;;;;;;4166576;28;20066;-44
2023/07/14 05:08:43;;;;;;;;;;;22.80;65.70;;;;;;4173563;28;19936;-44
2023/07/14 05:11:24;;;;;;;;;;;22.80;66.50;;;;;;4183680;28;19932;-46
2023/07/14 05:14:06;;;;;;;;;;;22.80;65.60;;;;;;4174754;28;19936;-46
2023/07/14 05:16:46;;;;;;;;;;;22.80;65.50;;;;;;4180701;28;19939;-44
2023/07/14 05:19:28;;;;;;;;;;;22.70;65.40;;;;;;4174503;28;20453;-46
2023/07/14 05:22:09;;;;;;;;;;;22.80;65.50;;;;;;4174671;28;19936;-43
2023/07/14 05:24:50;;;;;;;;;;;22.80;65.50;;;;;;4172100;28;19936;-44
2023/07/14 05:27:31;;;;;;;;;;;22.80;65.40;;;;;;4166334;28;20010;-44
2023/07/14 05:30:14;;;;;;;;;;;22.80;65.30;;;;;;4170771;28;20006;-44
2023/07/14 05:32:55;;;;;;;;;;;22.80;65.30;;;;;;4173269;28;19932;-47
2023/07/14 05:35:37;;;;;;;;;;;22.80;65.30;;;;;;4190382;28;20085;-43
2023/07/14 05:38:18;;;;;;;;;;;22.80;65.30;;;;;;4159121;28;19932;-42
2023/07/14 05:40:58;;;;;;;;;;;22.80;65.30;;;;;;4161142;28;19944;-43
2023/07/14 05:43:39;;;;;;;;;;;22.90;65.30;;;;;;4172198;28;19978;-44
2023/07/14 05:46:21;;;;;;;;;;;22.90;66.20;;;;;;4174071;28;19935;-45
2023/07/14 05:49:02;;;;;;;;;;;22.90;65.30;;;;;;4174554;28;19935;-48
2023/07/14 05:51:43;;;;;;;;;;;22.90;65.30;;;;;;4174006;28;20737;-48
2023/07/14 05:54:25;;;;;;;;;;;22.90;65.40;;;;;;4174410;28;20011;-44
2023/07/14 05:57:05;;;;;;;;;;;22.90;65.30;;;;;;4174384;28;20394;-43
2023/07/14 05:59:46;;;;;;;;;;;22.90;65.40;;;;;;4175089;28;20028;-44
2023/07/14 06:02:29;;;;;;;;;;;22.90;65.30;;;;;;4173980;28;20014;-45
2023/07/14 06:05:11;;;;;;;;;;;22.90;65.30;;;;;;4173702;28;19935;-43
2023/07/14 06:07:52;;;;;;;;;;;23.00;65.40;;;;;;4174204;28;20070;-48
2023/07/14 06:10:34;;;;;;;;;;;23.00;65.40;;;;;;4173352;28;20399;-44
2023/07/14 06:13:15;;;;;;;;;;;23.00;65.40;;;;;;4162829;28;19977;-47
2023/07/14 06:15:55;;;;;;;;;;;23.00;65.40;;;;;;4172137;28;20066;-44
2023/07/14 06:18:39;;;;;;;;;;;23.10;65.40;;;;;;4171319;28;19931;-44
2023/07/14 06:21:20;;;;;;;;;;;23.10;65.40;;;;;;4172535;28;19991;-45
2023/07/14 06:24:01;;;;;;;;;;;23.10;65.30;;;;;;4173375;28;19932;-48
2023/07/14 06:26:42;;;;;;;;;;;23.20;66.20;;;;;;4161372;28;19932;-50
2023/07/14 06:29:23;;;;;;;;;;;23.20;65.20;;;;;;4158559;28;19936;-47
2023/07/14 06:32:04;;;;;;;;;;;23.20;65.00;;;;;;4140691;28;20047;-45
2023/07/14 06:34:48;;;;;;;;;;;23.30;65.00;;;;;;4140677;28;19932;-45
2023/07/14 06:37:29;;;;;;;;;;;23.30;65.00;;;;;;4140129;28;20399;-45
2023/07/14 06:40:11;;;;;;;;;;;23.30;65.00;;;;;;4161763;28;20295;-48
2023/07/14 06:42:52;;;;;;;;;;;23.30;65.10;;;;;;4141169;28;20483;-44
2023/07/14 06:45:32;;;;;;;;;;;23.30;65.00;;;;;;4171765;28;19931;-48
2023/07/14 06:48:13;;;;;;;;;;;23.40;65.10;;;;;;4172739;28;19935;-44
2023/07/14 06:50:55;;;;;;;;;;;23.50;65.00;;;;;;4167729;28;19951;-49
2023/07/14 06:53:36;;;;;;;;;;;23.60;64.90;;;;;;4156333;28;20461;-44
2023/07/14 06:56:17;;;;;;;;;;;23.60;64.70;;;;;;4154440;28;20056;-45
2023/07/14 06:58:58;;;;;;;;;;;23.70;65.40;;;;;;4155308;28;19937;-46
2023/07/14 07:01:38;;;;;;;;;;;23.80;64.30;;;;;;4155112;28;19947;-46
2023/07/14 07:04:19;;;;;;;;;;;23.80;64.10;;;;;;4156259;28;19936;-46
2023/07/14 07:07:01;;;;;;;;;;;23.90;64.00;;;;;;4156643;28;20050;-46
2023/07/14 07:09:42;;;;;;;;;;;23.90;63.80;;;;;;4156075;28;19973;-46
2023/07/14 07:12:23;;;;;;;;;;;23.90;63.60;;;;;;4155834;28;20394;-46
2023/07/14 07:15:04;;;;;;;;;;;24.00;63.50;;;;;;4157377;28;19936;-43
2023/07/14 07:17:46;;;;;;;;;;;24.00;63.40;;;;;;4155708;28;20441;-44
2023/07/14 07:20:27;;;;;;;;;;;24.10;63.30;;;;;;4155653;28;19932;-44
2023/07/14 07:23:10;;;;;;;;;;;24.10;63.10;;;;;;4156009;28;19974;-45
2023/07/14 07:26:11;;;;;;;;;;;24.10;63.10;;;;;;4171283;28;20379;-45
2023/07/14 07:29:32;;;;;;;;;;;24.20;63.00;;;;;;4134754;28;19973;-45
2023/07/14 07:32:19;;;;;;;;;;;24.20;62.90;;;;;;4119377;28;19975;-46
2023/07/14 07:35:15;;;;;;;;;;;24.20;62.80;;;;;;4105459;28;19935;-44
2023/07/14 07:38:02;;;;;;;;;;;24.30;62.80;;;;;;4106278;28;19932;-48
2023/07/14 07:40:47;;;;;;;;;;;24.30;62.70;;;;;;4174966;28;19932;-50
2023/07/14 07:43:29;;;;;;;;;;;24.30;62.60;;;;;;4184974;28;20002;-47
2023/07/14 07:46:10;;;;;;;;;;;24.30;62.50;;;;;;4158293;28;19952;-51
2023/07/14 07:48:51;;;;;;;;;;;24.30;62.50;;;;;;4175776;28;20378;-49
2023/07/14 07:51:35;;;;;;;;;;;24.30;62.30;;;;;;4188133;28;19931;-47
2023/07/14 07:54:16;;;;;;;;;;;24.30;62.40;;;;;;4180647;28;19943;-50
2023/07/14 07:56:59;;;;;;;;;;;24.30;62.20;;;;;;4172605;28;19932;-50
2023/07/14 07:59:40;;;;;;;;;;;24.30;62.20;;;;;;4159703;28;19951;-50
2023/07/14 08:02:20;;;;;;;;;;;24.30;62.30;;;;;;4140899;28;19932;-46
2023/07/14 08:05:01;;;;;;;;;;;24.30;62.30;;;;;;4137503;28;19979;-48
2023/07/14 08:07:43;;;;;;;;;;;24.30;63.40;;;;;;4150948;28;20383;-47
2023/07/14 08:10:23;;;;;;;;;;;24.30;62.70;;;;;;4155486;28;19974;-43
2023/07/14 08:13:06;;;;;;;;;;;24.30;62.70;;;;;;4168151;28;19935;-44
2023/07/14 08:15:47;;;;;;;;;;;24.30;63.70;;;;;;4172196;28;19935;-42
2023/07/14 08:18:30;;;;;;;;;;;24.30;62.80;;;;;;4186224;28;20098;-48
2023/07/14 08:21:10;;;;;;;;;;;24.30;62.80;;;;;;4188315;28;20381;-46
2023/07/14 08:23:51;;;;;;;;;;;24.30;62.80;;;;;;4188656;28;21368;-49
2023/07/14 08:26:32;;;;;;;;;;;24.30;62.70;;;;;;4188257;28;20439;-47
2023/07/14 08:29:14;;;;;;;;;;;24.30;62.60;;;;;;4179866;28;19932;-48
2023/07/14 08:31:55;;;;;;;;;;;24.30;62.50;;;;;;4188400;28;20058;-46
2023/07/14 08:34:36;;;;;;;;;;;24.30;62.30;;;;;;4188177;28;19948;-46
2023/07/14 08:37:17;;;;;;;;;;;24.40;62.40;;;;;;4187658;28;19952;-46
2023/07/14 08:40:01;;;;;;;;;;;24.40;62.40;;;;;;4154774;28;19931;-46
2023/07/14 08:42:45;;;;;;;;;;;24.40;62.30;;;;;;4154213;28;19936;-43
2023/07/14 08:45:37;;;;;;;;;;;24.40;61.40;;;;;;4155291;28;19951;-48
2023/07/14 08:48:25;;;;;;;;;;;24.40;61.30;;;;;;4161359;28;19939;-44
2023/07/14 08:51:15;;;;;;;;;;;24.40;61.10;;;;;;4187999;28;19951;-44
2023/07/14 08:53:59;;;;;;;;;;;24.40;60.80;;;;;;4188216;28;19951;-44
2023/07/14 08:56:41;;;;;;;;;;;24.40;60.70;;;;;;4188488;28;20441;-43
2023/07/14 08:59:29;;;;;;;;;;;24.40;60.30;;;;;;4174829;28;20066;-45
2023/07/14 09:02:18;;;;;;;;;;;24.40;60.20;;;;;;4172161;28;20379;-47
2023/07/14 09:05:01;;;;;;;;;;;24.40;60.30;;;;;;4171065;28;19932;-45
2023/07/14 09:07:43;;;;;;;;;;;24.40;60.10;;;;;;4166133;28;20026;-43
2023/07/14 09:10:31;;;;;;;;;;;24.40;60.30;;;;;;4172040;28;20005;-42
2023/07/14 09:13:15;;;;;;;;;;;24.40;59.80;;;;;;4172790;28;20067;-44
2023/07/14 09:15:57;;;;;;;;;;;24.50;59.30;;;;;;4145849;28;20027;-44
2023/07/14 09:18:44;;;;;;;;;;;24.50;59.00;;;;;;4170782;28;19932;-44
2023/07/14 09:21:29;;;;;;;;;;;24.50;58.60;;;;;;4172695;28;19935;-46
2023/07/14 09:24:15;;;;;;;;;;;24.60;58.50;;;;;;4154941;28;19947;-43
2023/07/14 09:26:56;;;;;;;;;;;24.60;59.20;;;;;;4172036;28;19940;-42
2023/07/14 09:29:38;;;;;;;;;;;24.70;58.40;;;;;;4175505;28;19948;-42
2023/07/14 09:32:23;;;;;;;;;;;24.70;58.40;;;;;;4171179;28;20078;-44
2023/07/14 09:35:12;;;;;;;;;;;24.70;58.20;;;;;;4168114;28;19935;-47
2023/07/14 09:37:57;;;;;;;;;;;24.70;58.20;;;;;;4154961;28;19935;-48
2023/07/14 09:40:39;;;;;;;;;;;24.80;58.00;;;;;;4154799;28;19932;-52
2023/07/14 09:43:20;;;;;;;;;;;24.80;58.00;;;;;;4154415;28;19974;-49
2023/07/14 09:46:01;;;;;;;;;;;24.90;57.60;;;;;;4155617;28;19932;-46
2023/07/14 09:48:42;;;;;;;;;;;24.90;57.00;;;;;;4154111;28;19932;-48
2023/07/14 09:51:25;;;;;;;;;;;25.00;58.10;;;;;;4154782;28;20288;-51
2023/07/14 09:54:07;;;;;;;;;;;25.00;57.30;;;;;;4157075;28;20059;-47
2023/07/14 09:56:48;;;;;;;;;;;25.00;57.10;;;;;;4174472;28;19932;-49
2023/07/14 09:59:28;;;;;;;;;;;25.00;56.80;;;;;;4172408;28;20010;-47
2023/07/14 10:02:14;;;;;;;;;;;25.00;56.80;;;;;;4172384;28;19932;-54
2023/07/14 10:05:00;;;;;;;;;;;25.00;57.10;;;;;;4173347;28;19932;-45
2023/07/14 10:07:42;;;;;;;;;;;25.10;56.60;;;;;;4162222;28;20066;-45
2023/07/14 10:10:26;;;;;;;;;;;25.10;57.60;;;;;;4176799;28;20402;-50
2023/07/14 10:13:16;;;;;;;;;;;25.10;56.70;;;;;;4172973;28;20022;-47
2023/07/14 10:15:58;;;;;;;;;;;25.10;56.90;;;;;;4177255;28;19934;-43
2023/07/14 10:18:47;;;;;;;;;;;25.20;56.80;;;;;;4173622;28;19932;-43
2023/07/14 10:21:29;;;;;;;;;;;25.20;56.60;;;;;;4183958;28;20697;-44
2023/07/14 10:24:18;;;;;;;;;;;25.30;57.30;;;;;;4156787;28;20063;-42
2023/07/14 10:27:00;;;;;;;;;;;25.30;56.70;;;;;;4172503;28;20284;-41
2023/07/14 10:29:47;;;;;;;;;;;25.20;56.80;;;;;;4173088;28;19960;-43
2023/07/14 10:32:31;;;;;;;;;;;25.30;56.70;;;;;;4173755;28;19932;-45
2023/07/14 10:35:14;;;;;;;;;;;25.30;56.40;;;;;;4173386;28;19935;-47
2023/07/14 10:37:58;;;;;;;;;;;25.20;56.30;;;;;;4162787;28;20363;-47
2023/07/14 10:40:54;;;;;;;;;;;25.30;57.20;;;;;;4173465;28;19931;-45
2023/07/14 10:43:35;;;;;;;;;;;25.30;56.40;;;;;;4156297;28;19931;-46
2023/07/14 10:46:18;;;;;;;;;;;25.20;56.20;;;;;;4155701;28;19936;-45
2023/07/14 10:49:04;;;;;;;;;;;25.20;55.90;;;;;;4140388;28;19936;-46
2023/07/14 10:51:47;;;;;;;;;;;25.20;55.80;;;;;;4169769;28;20375;-46
2023/07/14 10:54:37;;;;;;;;;;;25.20;56.10;;;;;;4188997;28;20497;-45
2023/07/14 10:57:34;;;;;;;;;;;25.20;56.00;;;;;;4156807;28;19932;-48
2023/07/14 11:00:19;;;;;;;;;;;25.30;55.80;;;;;;4155693;28;19979;-47
2023/07/14 11:03:10;;;;;;;;;;;25.30;55.70;;;;;;4188061;28;19935;-46
2023/07/14 11:05:55;;;;;;;;;;;25.30;55.70;;;;;;4165277;28;21758;-42
2023/07/14 11:08:36;;;;;;;;;;;25.30;55.60;;;;;;4159122;28;19932;-46
2023/07/14 11:11:23;;;;;;;;;;;25.30;55.40;;;;;;4166762;28;20021;-46
2023/07/14 11:14:11;;;;;;;;;;;25.30;55.30;;;;;;4173079;28;19931;-47
2023/07/14 11:16:56;;;;;;;;;;;25.30;55.60;;;;;;4156330;28;19972;-45
2023/07/14 11:19:54;;;;;;;;;;;25.30;55.70;;;;;;4159237;28;19932;-46
2023/07/14 11:22:52;;;;;;;;;;;25.30;55.70;;;;;;4137671;28;20024;-47
2023/07/14 11:25:38;;;;;;;;;;;25.40;55.60;;;;;;4140103;28;19936;-48
2023/07/14 11:28:25;;;;;;;;;;;25.40;55.50;;;;;;4162443;28;19947;-48
2023/07/14 11:31:25;;;;;;;;;;;25.40;55.50;;;;;;4188837;28;20005;-48
2023/07/14 11:34:17;;;;;;;;;;;25.40;55.20;;;;;;4188290;28;20587;-46
2023/07/14 11:37:01;;;;;;;;;;;25.40;55.10;;;;;;4154070;28;19956;-45
2023/07/14 11:39:44;;;;;;;;;;;25.40;55.20;;;;;;4167853;28;19944;-50
2023/07/14 11:42:28;;;;;;;;;;;25.50;55.70;;;;;;4162990;28;19932;-51
2023/07/14 11:45:16;;;;;;;;;;;25.50;55.40;;;;;;4167071;28;19931;-49
2023/07/14 11:47:58;;;;;;;;;;;25.50;56.00;;;;;;4155670;28;19932;-46
2023/07/14 11:50:42;;;;;;;;;;;25.50;56.00;;;;;;4155345;28;20355;-45
2023/07/14 11:53:23;;;;;;;;;;;25.50;55.70;;;;;;4155848;28;19994;-46
2023/07/14 11:56:18;;;;;;;;;;;25.50;55.50;;;;;;4171964;28;19973;-46
2023/07/14 11:59:06;;;;;;;;;;;25.50;55.50;;;;;;4174466;28;20287;-46
2023/07/14 12:01:48;;;;;;;;;;;25.50;55.50;;;;;;4171726;28;19935;-53
2023/07/14 12:04:31;;;;;;;;;;;25.50;55.50;;;;;;4171163;28;20418;-48
2023/07/14 12:07:16;;;;;;;;;;;25.50;55.40;;;;;;4179120;28;19982;-51
2023/07/14 12:10:01;;;;;;;;;;;25.60;56.40;;;;;;4187938;28;20566;-49
2023/07/14 12:12:43;;;;;;;;;;;25.60;55.80;;;;;;4187691;28;20002;-47
2023/07/14 12:15:44;;;;;;;;;;;25.60;55.50;;;;;;4176926;28;20402;-47
2023/07/14 12:18:30;;;;;;;;;;;25.50;55.40;;;;;;4188068;28;20029;-49
2023/07/14 12:21:30;;;;;;;;;;;25.60;55.20;;;;;;4188622;28;19948;-50
2023/07/14 12:24:13;;;;;;;;;;;25.60;55.00;;;;;;4184178;28;19935;-46
2023/07/14 12:27:00;;;;;;;;;;;25.60;55.00;;;;;;4167198;28;19932;-49
2023/07/14 12:29:41;;;;;;;;;;;25.60;54.80;;;;;;4172245;28;19940;-48
2023/07/14 12:32:36;;;;;;;;;;;25.50;54.70;;;;;;4153976;28;19933;-50
2023/07/14 12:35:18;;;;;;;;;;;25.50;54.60;;;;;;4165700;28;20392;-47
2023/07/14 12:38:08;;;;;;;;;;;25.50;54.70;;;;;;4154868;28;19948;-48
2023/07/14 12:40:51;;;;;;;;;;;25.50;55.00;;;;;;4155216;28;19979;-45
2023/07/14 12:43:34;;;;;;;;;;;25.50;55.20;;;;;;4162503;28;19931;-46
2023/07/14 12:46:17;;;;;;;;;;;25.50;55.30;;;;;;4165243;28;19932;-50
2023/07/14 12:49:01;;;;;;;;;;;25.50;55.10;;;;;;4155458;28;20272;-47
2023/07/14 12:51:42;;;;;;;;;;;25.50;55.20;;;;;;4158772;28;19932;-50
2023/07/14 12:54:26;;;;;;;;;;;25.50;55.20;;;;;;4139486;28;20072;-49
2023/07/14 12:57:10;;;;;;;;;;;25.50;55.20;;;;;;4138698;28;20031;-50
2023/07/14 12:59:52;;;;;;;;;;;25.50;54.90;;;;;;4137053;28;19936;-51
2023/07/14 13:02:33;;;;;;;;;;;25.50;54.80;;;;;;4139590;28;19940;-49
2023/07/14 13:05:14;;;;;;;;;;;25.50;54.70;;;;;;4153613;28;19932;-49
2023/07/14 13:07:58;;;;;;;;;;;25.50;54.60;;;;;;4154357;28;20022;-46
2023/07/14 13:10:41;;;;;;;;;;;25.60;54.90;;;;;;4152864;28;19936;-45
2023/07/14 13:13:22;;;;;;;;;;;25.50;55.00;;;;;;4156400;28;20063;-48
2023/07/14 13:16:04;;;;;;;;;;;25.60;55.10;;;;;;4155034;28;19979;-45
2023/07/14 13:18:54;;;;;;;;;;;25.60;55.10;;;;;;4153131;28;19935;-48
2023/07/14 13:21:36;;;;;;;;;;;25.60;55.10;;;;;;4163771;28;19950;-51
2023/07/14 13:24:18;;;;;;;;;;;25.60;55.20;;;;;;4154191;28;19936;-51
2023/07/14 13:27:02;;;;;;;;;;;25.60;55.90;;;;;;4153810;28;19932;-49
2023/07/14 13:29:42;;;;;;;;;;;25.60;55.10;;;;;;4141276;28;20011;-45
2023/07/14 13:32:23;;;;;;;;;;;25.60;54.90;;;;;;4154782;28;19975;-51
2023/07/14 13:35:06;;;;;;;;;;;25.60;55.80;;;;;;4122035;28;19944;-48
2023/07/14 13:37:48;;;;;;;;;;;25.60;55.10;;;;;;4170872;28;20411;-47
2023/07/14 13:40:34;;;;;;;;;;;25.50;55.10;;;;;;4123864;27;19948;-46
2023/07/14 13:43:22;;;;;;;;;;;25.50;55.20;;;;;;4081756;28;20081;-48
2023/07/14 13:46:07;;;;;;;;;;;25.50;55.30;;;;;;4123702;28;19974;-46
2023/07/14 13:48:51;;;;;;;;;;;25.50;55.30;;;;;;4152748;28;19939;-47
2023/07/14 13:51:32;;;;;;;;;;;25.50;55.30;;;;;;4185775;28;19931;-45
2023/07/14 13:54:15;;;;;;;;;;;25.50;55.30;;;;;;4190663;28;19936;-46
2023/07/14 13:56:56;;;;;;;;;;;25.50;55.20;;;;;;4190027;28;19934;-45
2023/07/14 13:59:39;;;;;;;;;;;25.50;55.10;;;;;;4180711;28;19990;-48
2023/07/14 14:02:24;;;;;;;;;;;25.50;55.20;;;;;;4161944;28;19931;-46
2023/07/14 14:05:13;;;;;;;;;;;25.50;55.20;;;;;;4129769;28;19932;-46
2023/07/14 14:07:58;;;;;;;;;;;25.40;55.00;;;;;;4117476;28;20391;-46
2023/07/14 14:10:48;;;;;;;;;;;25.40;55.00;;;;;;4122120;28;19987;-46
2023/07/14 14:13:29;;;;;;;;;;;25.40;55.10;;;;;;4176875;28;19936;-48
2023/07/14 14:16:13;;;;;;;;;;;25.40;55.80;;;;;;4173758;28;20679;-45
2023/07/14 14:18:54;;;;;;;;;;;25.40;55.30;;;;;;4172542;28;19935;-46
2023/07/14 14:21:35;;;;;;;;;;;25.40;55.60;;;;;;4160160;28;19975;-45
2023/07/14 14:24:16;;;;;;;;;;;25.40;55.70;;;;;;4156724;28;19935;-52
2023/07/14 14:26:57;;;;;;;;;;;25.40;55.70;;;;;;4156297;28;19936;-51
2023/07/14 14:29:38;;;;;;;;;;;25.40;55.60;;;;;;4158365;28;19932;-47
2023/07/14 14:32:23;;;;;;;;;;;25.40;55.50;;;;;;4165015;28;19998;-49
2023/07/14 14:35:16;;;;;;;;;;;25.40;55.40;;;;;;4189417;28;19935;-49
2023/07/14 14:37:58;;;;;;;;;;;25.40;55.40;;;;;;4179188;28;20006;-46
2023/07/14 14:40:39;;;;;;;;;;;25.40;55.50;;;;;;4169396;28;19935;-48
2023/07/14 14:43:21;;;;;;;;;;;25.40;55.60;;;;;;4186435;28;19932;-46
2023/07/14 14:46:02;;;;;;;;;;;25.40;55.60;;;;;;4189917;28;19931;-45
2023/07/14 14:48:44;;;;;;;;;;;25.40;55.60;;;;;;4169667;28;20398;-47
2023/07/14 14:51:25;;;;;;;;;;;25.40;55.50;;;;;;4173021;28;19932;-46
2023/07/14 14:54:07;;;;;;;;;;;25.40;55.50;;;;;;4156395;28;19932;-46
2023/07/14 14:56:48;;;;;;;;;;;25.50;56.30;;;;;;4156622;28;20043;-44
2023/07/14 14:59:30;;;;;;;;;;;25.40;55.50;;;;;;4156592;28;20383;-43
2023/07/14 15:02:15;;;;;;;;;;;25.50;55.70;;;;;;4160622;28;20013;-47
2023/07/14 15:04:57;;;;;;;;;;;25.50;55.70;;;;;;4157541;28;19936;-45
2023/07/14 15:07:38;;;;;;;;;;;25.50;55.80;;;;;;4156625;28;19936;-48
2023/07/14 15:10:20;;;;;;;;;;;25.50;55.70;;;;;;4156249;28;19932;-48
2023/07/14 15:13:01;;;;;;;;;;;25.50;55.70;;;;;;4179250;28;19935;-46
2023/07/14 15:15:42;;;;;;;;;;;25.50;55.60;;;;;;4155852;28;19932;-45
2023/07/14 15:18:23;;;;;;;;;;;25.50;55.70;;;;;;4156495;28;19936;-48
2023/07/14 15:21:10;;;;;;;;;;;25.50;55.80;;;;;;4155178;28;19986;-48
2023/07/14 15:23:52;;;;;;;;;;;25.50;55.80;;;;;;4157425;28;19932;-43
2023/07/14 15:26:34;;;;;;;;;;;25.50;55.70;;;;;;4169565;28;19931;-50
2023/07/14 15:29:16;;;;;;;;;;;25.50;55.50;;;;;;4172287;28;20033;-44
2023/07/14 15:31:57;;;;;;;;;;;25.60;55.70;;;;;;4171873;28;19997;-48
2023/07/14 15:34:38;;;;;;;;;;;25.50;55.80;;;;;;4187553;28;19935;-45
2023/07/14 15:37:21;;;;;;;;;;;25.50;56.00;;;;;;4188809;28;19977;-53
2023/07/14 15:40:01;;;;;;;;;;;25.50;56.20;;;;;;4171304;28;19936;-50
2023/07/14 15:42:43;;;;;;;;;;;25.50;56.40;;;;;;4166001;28;19975;-45
2023/07/14 15:45:25;;;;;;;;;;;25.50;56.80;;;;;;4156585;28;20664;-45
2023/07/14 15:48:10;;;;;;;;;;;25.50;56.80;;;;;;4155669;28;19932;-46